NCAR-RAP Real-Time Weather Data

Output produced by METARs form (23 February 2020  00:35 UTC)
found at http://weather.rap.ucar.edu/surface/
 
KSYR 222354Z 20004KT 10SM FEW250 03/M07 A3015 RMK AO2 SLP211 4/006 T00281072 10039 20022 55001
KSYR 222254Z 20005KT 10SM FEW050 FEW140 SCT250 03/M07 A3014 RMK AO2 SLP209 T00281067
KSYR 222154Z 23009KT 10SM FEW200 SCT250 04/M07 A3015 RMK AO2 SLP211 T00391067
KSYR 222054Z 24010KT 10SM FEW040 FEW250 04/M06 A3015 RMK AO2 SLP214 T00391061 56011
KSYR 221954Z 25008KT 10SM FEW040 SCT250 03/M06 A3016 RMK AO2 SLP216 T00331056
KSYR 221854Z 25012G20KT 10SM BKN041 03/M06 A3017 RMK AO2 SLP220 T00281056
KSYR 221754Z 25012KT 10SM BKN041 02/M06 A3019 RMK AO2 SLP224 4/007 933012 T00221061 10022 21028 58010
KSYR 221654Z 26014KT 10SM SCT040 02/M07 A3021 RMK AO2 SLP230 T00171072
KSYR 221554Z 25014KT 10SM FEW050 FEW250 01/M07 A3022 RMK AO2 SLP234 T00111067
KSYR 221454Z 27016G21KT 10SM FEW150 FEW250 01/M08 A3022 RMK AO2 SLP234 T00061078 50003
KSYR 221354Z 25013KT 10SM FEW040 FEW250 M01/M09 A3022 RMK AO2 SLP235 T10061089
KSYR 221254Z 24011KT 10SM FEW040 FEW250 M02/M10 A3022 RMK AO2 SLP234 T10171100
KSYR 221154Z 24009KT 10SM FEW040 FEW250 M03/M12 A3021 RMK AO2 SLP231 4/007 T10281117 11028 21122 50004
KSYR 221054Z 24009KT 10SM FEW041 M04/M13 A3021 RMK AO2 SLP233 T10391128
KSYR 220954Z 24007KT 10SM CLR M07/M15 A3020 RMK AO2 SLP230 T10721150
KSYR 220854Z 00000KT 10SM CLR M11/M15 A3020 RMK AO2 SLP230 T11111150 58002
KSYR 220754Z 00000KT 10SM CLR M11/M16 A3022 RMK AO2 SLP236 T11111156
KSYR 220654Z 00000KT 10SM CLR M09/M14 A3022 RMK AO2 SLP238 T10941144
KSYR 220554Z 00000KT 10SM CLR M07/M15 A3021 RMK AO2 SLP231 4/008 T10671150 11017 21078 56013
KSYR 220454Z 22004KT 10SM CLR M03/M15 A3021 RMK AO2 SLP232 T10281150 410061133
KSYR 220354Z 20005KT 10SM CLR M03/M14 A3022 RMK AO2 SLP235 T10281139
KSYR 220254Z 20007KT 10SM CLR M03/M14 A3024 RMK AO2 SLP244 T10331139 58021
KSYR 220154Z 22004KT 10SM CLR M03/M14 A3026 RMK AO2 SLP251 T10331139
KSYR 220054Z 21004KT 10SM CLR M03/M13 A3029 RMK AO2 SLP260 T10331133
KSYR 212354Z 20004KT 10SM CLR M02/M13 A3031 RMK AO2 SLP266 4/008 T10221128 11006 21028 56017
KSYR 212254Z 21007KT 10SM CLR M02/M13 A3032 RMK AO2 SLP269 T10171128
KSYR 212154Z 22010KT 10SM CLR M01/M13 A3034 RMK AO2 SLP276 T10111128
KSYR 212054Z 22009KT 10SM CLR M01/M12 A3036 RMK AO2 SLP283 T10111122 56028
KSYR 211954Z 21007KT 10SM CLR M02/M12 A3038 RMK AO2 SLP293 T10171122
KSYR 211854Z 26010KT 10SM FEW035 M02/M13 A3041 RMK AO2 SLP302 T10221133
KSYR 211754Z 26011KT 10SM FEW035 M03/M13 A3044 RMK AO2 SLP311 4/008 933015 60000 T10281133 11028 21094 58017
KSYR 211654Z 25012KT 10SM FEW035 M04/M13 A3047 RMK AO2 SLP321 T10391128
KSYR 211554Z 24013KT 10SM FEW035 M05/M12 A3049 RMK AO2 SLP328 T10501122
KSYR 211454Z 26012KT 10SM FEW035 M06/M13 A3049 RMK AO2 SLP328 60000 T10611128 58003
KSYR 211354Z 24012KT 10SM BKN035 M07/M13 A3050 RMK AO2 SLP331 T10721133
KSYR 211313Z 24007KT 10SM BKN031 M08/M13 A3050 RMK AO2 T10781128
KSYR 211254Z 20006KT 10SM FEW019 BKN029 M08/M13 A3050 RMK AO2 SNE26 SLP332 P0000 T10831128
KSYR 211154Z 21003KT 4SM -SN BKN022 OVC033 M09/M12 A3050 RMK AO2 SLP332 OVC V BKN 4/008 P0000 60000 T10941122 11078 21133 51005
KSYR 211054Z 23003KT 7SM -SN BKN025 OVC032 M09/M14 A3049 RMK AO2 SLP330 P0000 T10891139
KSYR 211005Z 25004KT 9SM -SN BKN028 OVC040 M09/M14 A3049 RMK AO2 P0000 T10891144
KSYR 210954Z COR 26004KT 10SM -SN SCT027 OVC041 M09/M14 A3049 RMK AO2 SLP330 SCT V BKN PCPN VRY LGT SNB51 P0000 T10891144
KSYR 210854Z 01003KT 10SM BKN037 M12/M14 A3048 RMK AO2 SLP328 60000 T11171139 58004
KSYR 210754Z 28005KT 10SM FEW040 SCT250 M10/M12 A3049 RMK AO2 SLP330 T11001117
KSYR 210654Z 27005KT 9SM SCT038 M09/M12 A3049 RMK AO2 SNE51 SLP329 P0000 T10941117
KSYR 210554Z 26008KT 9SM -SN FEW030 OVC041 M08/M11 A3049 RMK AO2 SLP330 4/009 P0000 60000 T10781106 11067 21078 53002
KSYR 210454Z 26008KT 5SM -SN SCT027 OVC045 M07/M10 A3049 RMK AO2 SLP329 P0000 T10721100 410441078
KSYR 210449Z 26008KT 5SM -SN SCT027 OVC045 M07/M10 A3049 RMK AO2 P0000
KSYR 210416Z 26006KT 4SM -SN BKN027 OVC049 M07/M10 A3049 RMK AO2 P0000 T10721100
KSYR 210403Z 26006KT 2 1/2SM -SN BKN028 OVC050 M07/M11 A3049 RMK AO2 P0000 T10721106
KSYR 210354Z 27009KT 3SM -SN BKN029 OVC050 M07/M11 A3049 RMK AO2 SLP328 P0000 T10721106
KSYR 210254Z 25010KT 9SM -SN FEW039 OVC055 M07/M11 A3049 RMK AO2 SLP329 PCPN VRY LGT P0000 60000 T10721111 51002
KSYR 210154Z 26007KT 9SM -SN OVC050 M07/M12 A3049 RMK AO2 SLP328 PCPN VRY LGT P0000 T10671122
KSYR 210054Z 25005KT 9SM -SN OVC055 M07/M12 A3049 RMK AO2 SNB08 SLP329 PCPN VRY LGT P0000 T10721122